createdAt,value
2022-07-28T00:01:42.655Z,12.30
2022-07-28T00:04:27.849Z,12.50
2022-07-28T00:07:13.620Z,12.40
2022-07-28T00:10:01.128Z,12.30
2022-07-28T00:12:46.633Z,12.20
2022-07-28T00:15:32.417Z,12.30
2022-07-28T00:18:17.805Z,12.30
2022-07-28T00:21:03.450Z,12.10
2022-07-28T00:23:48.938Z,12.20
2022-07-28T00:26:34.533Z,12.20
2022-07-28T00:29:20.133Z,12.10
2022-07-28T00:32:09.114Z,12.10
2022-07-28T00:34:54.993Z,12.00
2022-07-28T00:37:40.435Z,12.00
2022-07-28T00:40:45.982Z,12.00
2022-07-28T00:43:31.531Z,11.90
2022-07-28T00:46:20.504Z,11.90
2022-07-28T00:49:06.355Z,12.00
2022-07-28T00:51:53.031Z,12.00
2022-07-28T00:54:38.972Z,11.90
2022-07-28T00:57:27.230Z,11.90
2022-07-28T01:00:12.742Z,11.80
2022-07-28T01:02:58.786Z,11.90
2022-07-28T01:06:02.988Z,11.90
2022-07-28T01:09:16.009Z,11.80
2022-07-28T01:12:35.577Z,11.70
2022-07-28T01:15:38.699Z,11.60
2022-07-28T01:18:29.480Z,11.70
2022-07-28T01:21:20.481Z,11.70
2022-07-28T01:24:41.282Z,11.60
2022-07-28T01:27:50.460Z,11.70
2022-07-28T01:30:46.263Z,11.60
2022-07-28T01:33:37.151Z,11.50
2022-07-28T01:36:35.304Z,11.50
2022-07-28T01:39:22.100Z,11.60
2022-07-28T01:42:08.912Z,11.40
2022-07-28T01:44:55.561Z,11.50
2022-07-28T01:47:47.988Z,11.40
2022-07-28T01:50:34.847Z,11.40
2022-07-28T01:53:21.539Z,11.50
2022-07-28T01:56:08.150Z,11.40
2022-07-28T01:58:56.607Z,11.40
2022-07-28T02:01:44.404Z,11.40
2022-07-28T02:04:32.862Z,11.40
2022-07-28T02:07:20.770Z,11.40
2022-07-28T02:10:08.110Z,11.40
2022-07-28T02:12:55.028Z,11.30
2022-07-28T02:15:41.102Z,11.40
2022-07-28T02:18:27.560Z,11.30
2022-07-28T02:21:14.797Z,11.30
2022-07-28T02:24:00.434Z,11.40
2022-07-28T02:26:58.874Z,11.40
2022-07-28T02:30:12.334Z,11.30
2022-07-28T02:33:24.397Z,11.30
2022-07-28T02:36:40.733Z,11.30
2022-07-28T02:39:33.516Z,11.40
2022-07-28T02:42:21.328Z,11.40
2022-07-28T02:45:09.996Z,11.30
2022-07-28T02:48:00.276Z,11.40
2022-07-28T02:50:47.457Z,11.30
2022-07-28T02:53:33.539Z,11.40
2022-07-28T02:56:20.220Z,11.30
2022-07-28T02:59:07.827Z,11.30
2022-07-28T03:01:53.989Z,11.20
2022-07-28T03:04:59.687Z,11.30
2022-07-28T03:07:50.709Z,11.30
2022-07-28T03:10:37.146Z,11.10
2022-07-28T03:13:23.548Z,11.20
2022-07-28T03:16:09.499Z,11.20
2022-07-28T03:18:55.974Z,11.10
2022-07-28T03:21:41.941Z,11.20
2022-07-28T03:24:30.952Z,11.20
2022-07-28T03:27:22.228Z,11.10
2022-07-28T03:30:16.834Z,11.10
2022-07-28T03:33:03.532Z,11.10
2022-07-28T03:35:52.022Z,11.10
2022-07-28T03:38:43.838Z,11.10
2022-07-28T03:41:30.200Z,11.10
2022-07-28T03:44:27.654Z,11.00
2022-07-28T03:47:15.430Z,11.00
2022-07-28T03:50:00.909Z,10.90
2022-07-28T03:52:49.735Z,10.90
2022-07-28T03:55:35.303Z,10.90
2022-07-28T03:58:22.551Z,10.70
2022-07-28T04:01:13.835Z,10.60
2022-07-28T04:03:59.310Z,10.70
2022-07-28T04:06:44.913Z,10.60
2022-07-28T04:09:30.504Z,10.50
2022-07-28T04:12:18.069Z,10.60
2022-07-28T04:15:04.395Z,10.60
2022-07-28T04:17:51.438Z,10.60
2022-07-28T04:20:36.758Z,10.60
2022-07-28T04:23:22.614Z,10.50
2022-07-28T04:26:08.141Z,10.50
2022-07-28T04:28:53.749Z,10.50
2022-07-28T04:31:39.472Z,10.60
2022-07-28T04:34:25.145Z,10.70
2022-07-28T04:37:10.475Z,10.60
2022-07-28T04:39:55.804Z,10.80
2022-07-28T04:42:43.027Z,10.90
2022-07-28T04:45:28.392Z,10.90
2022-07-28T04:48:14.282Z,10.90
2022-07-28T04:51:04.764Z,11.00
2022-07-28T04:53:52.718Z,11.10
2022-07-28T04:56:38.257Z,11.00
2022-07-28T04:59:23.633Z,11.10
2022-07-28T05:02:10.663Z,11.00
2022-07-28T05:04:56.347Z,11.10
2022-07-28T05:07:45.401Z,11.10
2022-07-28T05:10:30.984Z,11.20
2022-07-28T05:13:19.592Z,11.30
2022-07-28T05:16:08.797Z,11.60
2022-07-28T05:18:56.033Z,11.60
2022-07-28T05:21:41.427Z,11.60
2022-07-28T05:24:27.240Z,11.80
2022-07-28T05:27:13.449Z,11.90
2022-07-28T05:29:58.700Z,12.00
2022-07-28T05:32:49.454Z,12.10
2022-07-28T05:35:34.783Z,12.40
2022-07-28T05:38:20.572Z,12.40
2022-07-28T05:41:06.732Z,12.50
2022-07-28T05:43:54.808Z,12.70
2022-07-28T05:46:42.526Z,12.80
2022-07-28T05:49:27.847Z,12.90
2022-07-28T05:52:13.387Z,13.10
2022-07-28T05:54:58.801Z,13.20
2022-07-28T05:57:44.970Z,13.30
2022-07-28T06:00:33.652Z,13.40
2022-07-28T06:03:22.600Z,13.60
2022-07-28T06:06:16.036Z,13.70
2022-07-28T06:09:02.323Z,13.80
2022-07-28T06:11:49.893Z,13.90
2022-07-28T06:14:35.082Z,14.10
2022-07-28T06:17:20.836Z,14.20
2022-07-28T06:20:07.108Z,14.40
2022-07-28T06:22:55.168Z,14.60
2022-07-28T06:25:40.854Z,14.60
2022-07-28T06:28:26.551Z,14.80
2022-07-28T06:31:12.028Z,15.00
2022-07-28T06:33:57.594Z,15.00
2022-07-28T06:36:43.054Z,15.30
2022-07-28T06:39:31.212Z,15.30
2022-07-28T06:42:17.227Z,15.60
2022-07-28T06:45:02.445Z,15.80
2022-07-28T06:47:49.187Z,15.90
2022-07-28T06:50:34.790Z,16.00
2022-07-28T06:53:20.340Z,16.20
2022-07-28T06:56:06.211Z,16.30
2022-07-28T06:58:51.632Z,16.50
2022-07-28T07:01:41.779Z,16.60
2022-07-28T07:04:28.659Z,16.80
2022-07-28T07:07:16.947Z,17.00
2022-07-28T07:10:04.791Z,17.20
2022-07-28T07:12:50.064Z,17.20
2022-07-28T07:15:35.965Z,17.40
2022-07-28T07:18:21.268Z,17.40
2022-07-28T07:21:06.977Z,17.60
2022-07-28T07:23:52.084Z,17.50
2022-07-28T07:26:38.681Z,17.60
2022-07-28T07:29:24.537Z,17.80
2022-07-28T07:32:11.076Z,18.00
2022-07-28T07:34:56.824Z,17.90
2022-07-28T07:37:42.422Z,18.00
2022-07-28T07:40:28.464Z,18.10
2022-07-28T07:43:14.073Z,18.30
2022-07-28T07:45:59.707Z,18.50
2022-07-28T07:48:45.219Z,18.40
2022-07-28T07:51:30.702Z,18.60
2022-07-28T07:54:16.772Z,18.80
2022-07-28T07:57:03.384Z,18.80
2022-07-28T07:59:48.609Z,18.90
2022-07-28T08:02:34.024Z,19.00
2022-07-28T08:05:19.754Z,19.10
2022-07-28T08:08:05.669Z,19.20
2022-07-28T08:10:51.454Z,19.20
2022-07-28T08:13:36.945Z,19.20
2022-07-28T08:16:22.563Z,19.00
2022-07-28T08:19:11.793Z,18.90
2022-07-28T08:21:57.470Z,18.90
2022-07-28T08:24:43.114Z,18.90
2022-07-28T08:27:28.905Z,18.80
2022-07-28T08:30:15.136Z,18.90
2022-07-28T08:33:07.357Z,18.80
2022-07-28T08:35:53.204Z,18.70
2022-07-28T08:38:38.493Z,18.90
2022-07-28T08:41:33.590Z,19.30
2022-07-28T08:44:24.706Z,19.10
2022-07-28T08:47:13.375Z,19.30
2022-07-28T08:50:02.114Z,19.40
2022-07-28T08:52:51.836Z,19.80
2022-07-28T08:55:39.013Z,19.80
2022-07-28T08:58:24.408Z,20.00
2022-07-28T09:01:11.349Z,20.20
2022-07-28T09:03:57.892Z,20.10
2022-07-28T09:06:46.407Z,20.40
2022-07-28T09:09:32.862Z,20.50
2022-07-28T09:12:18.159Z,20.40
2022-07-28T09:15:05.574Z,20.60
2022-07-28T09:17:51.222Z,20.50
2022-07-28T09:20:37.882Z,20.50
2022-07-28T09:23:42.492Z,20.70
2022-07-28T09:26:28.909Z,21.00
2022-07-28T09:29:24.047Z,21.10
2022-07-28T09:32:09.668Z,21.10
2022-07-28T09:34:55.367Z,21.30
2022-07-28T09:37:41.022Z,21.50
2022-07-28T09:40:26.719Z,21.50
2022-07-28T09:43:12.316Z,21.60
2022-07-28T09:46:08.353Z,21.40
2022-07-28T09:48:57.431Z,21.40
2022-07-28T09:51:58.715Z,21.60
2022-07-28T09:55:04.521Z,21.60
2022-07-28T09:57:50.808Z,21.60
2022-07-28T10:00:37.441Z,21.30
2022-07-28T10:03:26.784Z,21.20
2022-07-28T10:06:24.377Z,21.20
2022-07-28T10:09:14.392Z,21.20
2022-07-28T10:12:26.670Z,21.20
2022-07-28T10:15:33.762Z,20.90
2022-07-28T10:18:19.860Z,20.90
2022-07-28T10:21:12.120Z,20.90
2022-07-28T10:24:07.124Z,21.00
2022-07-28T10:26:54.578Z,21.10
2022-07-28T10:29:44.338Z,21.10
2022-07-28T10:32:46.515Z,21.30
2022-07-28T10:35:33.578Z,21.10
2022-07-28T10:38:41.570Z,21.10
2022-07-28T10:41:35.475Z,21.40
2022-07-28T10:44:21.676Z,21.30
2022-07-28T10:47:18.584Z,21.50
2022-07-28T10:50:06.445Z,21.90
2022-07-28T10:52:58.906Z,21.90
2022-07-28T10:55:52.610Z,22.20
2022-07-28T10:59:13.973Z,22.70
2022-07-28T11:01:59.589Z,22.90
2022-07-28T11:04:46.197Z,23.10
2022-07-28T11:07:39.851Z,23.10
2022-07-28T11:10:25.482Z,23.50
2022-07-28T11:13:33.042Z,23.40
2022-07-28T11:16:22.124Z,23.60
2022-07-28T11:19:42.003Z,23.60
2022-07-28T11:22:21.409Z,23.70
2022-07-28T11:25:19.269Z,23.60
2022-07-28T11:28:06.967Z,23.60
2022-07-28T11:30:54.530Z,23.60
2022-07-28T11:33:56.574Z,23.70
2022-07-28T11:37:06.657Z,23.80
2022-07-28T11:39:52.613Z,23.60
2022-07-28T11:42:38.802Z,24.00
2022-07-28T11:45:35.912Z,23.90
2022-07-28T11:48:26.382Z,24.00
2022-07-28T11:51:13.573Z,24.00
2022-07-28T11:53:59.492Z,23.80
2022-07-28T11:56:45.555Z,23.70
2022-07-28T11:59:49.608Z,23.70
2022-07-28T12:02:36.105Z,23.80
2022-07-28T12:05:22.541Z,23.80
2022-07-28T12:08:11.134Z,23.90
2022-07-28T12:10:56.798Z,23.90
2022-07-28T12:13:43.295Z,23.80
2022-07-28T12:16:32.637Z,23.60
2022-07-28T12:19:19.410Z,23.70
2022-07-28T12:22:14.935Z,23.60
2022-07-28T12:25:01.438Z,23.40
2022-07-28T12:27:49.159Z,23.50
2022-07-28T12:30:35.355Z,23.60
2022-07-28T12:33:29.608Z,23.80
2022-07-28T12:36:18.892Z,23.90
2022-07-28T12:39:12.820Z,23.70
2022-07-28T12:42:03.906Z,23.60
2022-07-28T12:44:51.288Z,23.80
2022-07-28T12:47:36.911Z,23.90
2022-07-28T12:50:22.417Z,24.00
2022-07-28T12:53:10.878Z,23.80
2022-07-28T12:56:02.203Z,23.90
2022-07-28T12:58:48.392Z,23.70
2022-07-28T13:01:51.725Z,23.40
2022-07-28T13:04:39.816Z,23.20
2022-07-28T13:07:26.479Z,23.30
2022-07-28T13:10:13.074Z,23.40
2022-07-28T13:13:05.462Z,23.50
2022-07-28T13:16:14.299Z,23.70
2022-07-28T13:19:05.720Z,23.70
2022-07-28T13:22:04.079Z,23.60
2022-07-28T13:24:52.696Z,23.90
2022-07-28T13:27:38.100Z,24.00
2022-07-28T13:30:24.018Z,24.20
2022-07-28T13:33:13.797Z,24.30
2022-07-28T13:36:00.756Z,24.30
2022-07-28T13:38:46.239Z,24.60
2022-07-28T13:41:56.597Z,24.70
2022-07-28T13:44:38.096Z,24.80
2022-07-28T13:47:35.606Z,24.40
2022-07-28T13:50:24.849Z,24.30
2022-07-28T13:53:10.368Z,24.50
2022-07-28T13:55:55.729Z,24.30
2022-07-28T13:58:41.278Z,24.10
2022-07-28T14:01:27.447Z,24.30
2022-07-28T14:04:17.471Z,24.30
2022-07-28T14:07:03.512Z,24.50
2022-07-28T14:09:54.403Z,24.20
2022-07-28T14:12:40.154Z,24.30
2022-07-28T14:15:27.173Z,24.10
2022-07-28T14:18:13.615Z,24.30
2022-07-28T14:20:59.269Z,24.20
2022-07-28T14:23:46.149Z,24.40
2022-07-28T14:26:36.020Z,24.50
2022-07-28T14:29:21.589Z,24.30
2022-07-28T14:32:07.666Z,24.20
2022-07-28T14:34:53.780Z,23.80
2022-07-28T14:38:11.579Z,23.70
2022-07-28T14:40:48.532Z,23.60
2022-07-28T14:43:34.369Z,23.60
2022-07-28T14:46:21.584Z,23.80
2022-07-28T14:49:07.801Z,23.90
2022-07-28T14:51:53.923Z,24.00
2022-07-28T14:54:40.835Z,24.20
2022-07-28T14:57:50.062Z,24.40
2022-07-28T15:00:31.783Z,24.30
2022-07-28T15:03:21.431Z,24.40
2022-07-28T15:06:12.491Z,24.50
2022-07-28T15:08:58.535Z,24.70
2022-07-28T15:11:46.311Z,24.40
2022-07-28T15:14:31.911Z,24.50
2022-07-28T15:17:17.364Z,24.40
2022-07-28T15:20:06.356Z,24.60
2022-07-28T15:22:51.952Z,24.50
2022-07-28T15:25:38.351Z,24.20
2022-07-28T15:28:23.775Z,24.30
2022-07-28T15:31:09.143Z,24.20
2022-07-28T15:33:57.598Z,24.30
2022-07-28T15:36:43.907Z,24.20
2022-07-28T15:39:30.881Z,24.00
2022-07-28T15:42:17.329Z,24.10
2022-07-28T15:45:03.006Z,24.00
2022-07-28T15:47:48.479Z,24.00
2022-07-28T15:50:34.305Z,24.10
2022-07-28T15:53:20.350Z,24.00
2022-07-28T15:56:06.390Z,23.80
2022-07-28T15:58:52.019Z,23.80
2022-07-28T16:01:40.862Z,24.00
2022-07-28T16:04:32.558Z,23.80
2022-07-28T16:07:23.001Z,23.70
2022-07-28T16:10:08.932Z,23.60
2022-07-28T16:12:56.053Z,23.70
2022-07-28T16:15:41.681Z,23.70
2022-07-28T16:18:27.791Z,23.60
2022-07-28T16:21:16.409Z,23.40
2022-07-28T16:24:01.903Z,23.50
2022-07-28T16:26:47.615Z,23.80
2022-07-28T16:29:32.930Z,23.80
2022-07-28T16:32:18.577Z,23.80
2022-07-28T16:35:06.850Z,23.60
2022-07-28T16:37:55.101Z,23.60
2022-07-28T16:40:41.926Z,23.60
2022-07-28T16:43:30.343Z,23.70
2022-07-28T16:46:15.645Z,23.50
2022-07-28T16:49:01.922Z,23.70
2022-07-28T16:51:50.340Z,23.70
2022-07-28T16:54:38.454Z,23.50
2022-07-28T16:57:24.266Z,23.60
2022-07-28T17:00:10.960Z,23.50
2022-07-28T17:02:56.174Z,23.20
2022-07-28T17:05:41.718Z,23.30
2022-07-28T17:08:27.707Z,23.10
2022-07-28T17:11:13.289Z,22.90
2022-07-28T17:13:59.267Z,23.10
2022-07-28T17:16:45.892Z,23.00
2022-07-28T17:19:32.960Z,22.70
2022-07-28T17:22:19.461Z,22.50
2022-07-28T17:25:22.473Z,22.40
2022-07-28T17:28:14.335Z,22.40
2022-07-28T17:31:02.593Z,22.20
2022-07-28T17:33:48.492Z,22.00
2022-07-28T17:36:37.111Z,22.00
2022-07-28T17:39:23.583Z,21.70
2022-07-28T17:42:09.511Z,21.90
2022-07-28T17:44:57.688Z,21.60
2022-07-28T17:47:43.292Z,21.70
2022-07-28T17:50:31.620Z,21.30
2022-07-28T17:53:20.255Z,21.20
2022-07-28T17:56:07.003Z,21.30
2022-07-28T17:58:54.401Z,21.30
2022-07-28T18:01:45.256Z,21.20
2022-07-28T18:04:31.146Z,21.10
2022-07-28T18:07:16.567Z,20.90
2022-07-28T18:10:02.081Z,20.80
2022-07-28T18:12:47.613Z,20.70
2022-07-28T18:15:37.018Z,20.70
2022-07-28T18:18:32.926Z,20.50
2022-07-28T18:21:18.314Z,20.60
2022-07-28T18:24:04.198Z,20.50
2022-07-28T18:26:52.875Z,20.40
2022-07-28T18:29:38.985Z,20.20
2022-07-28T18:32:27.545Z,20.00
2022-07-28T18:35:14.311Z,19.90
2022-07-28T18:38:03.057Z,19.80
2022-07-28T18:40:49.562Z,20.00
2022-07-28T18:43:38.256Z,19.80
2022-07-28T18:46:27.258Z,19.80
2022-07-28T18:49:13.170Z,19.50
2022-07-28T18:52:02.478Z,19.40
2022-07-28T18:54:48.442Z,19.50
2022-07-28T18:57:34.537Z,19.50
2022-07-28T19:00:21.499Z,19.40
2022-07-28T19:03:09.814Z,19.20
2022-07-28T19:05:55.572Z,19.20
2022-07-28T19:08:43.970Z,19.10
2022-07-28T19:11:32.293Z,18.80
2022-07-28T19:14:18.165Z,18.90
2022-07-28T19:17:11.233Z,18.80
2022-07-28T19:19:56.808Z,18.80
2022-07-28T19:22:42.296Z,18.70
2022-07-28T19:25:29.983Z,18.60
2022-07-28T19:28:16.192Z,18.30
2022-07-28T19:31:10.219Z,18.50
2022-07-28T19:33:56.632Z,18.30
2022-07-28T19:36:42.008Z,18.20
2022-07-28T19:39:29.070Z,18.10
2022-07-28T19:42:14.509Z,17.90
2022-07-28T19:45:00.307Z,18.00
2022-07-28T19:47:45.605Z,17.80
2022-07-28T19:50:36.325Z,17.80
2022-07-28T19:53:25.156Z,17.70
2022-07-28T19:56:17.818Z,17.80
2022-07-28T19:59:04.001Z,17.70
2022-07-28T20:01:50.778Z,17.70
2022-07-28T20:04:37.613Z,17.70
2022-07-28T20:07:24.753Z,17.50
2022-07-28T20:10:10.135Z,17.50
2022-07-28T20:12:56.214Z,17.40
2022-07-28T20:15:42.401Z,17.50
2022-07-28T20:18:30.772Z,17.30
2022-07-28T20:21:21.259Z,17.30
2022-07-28T20:24:08.397Z,17.30
2022-07-28T20:27:01.039Z,17.30
2022-07-28T20:29:46.641Z,17.20
2022-07-28T20:32:32.505Z,17.30
2022-07-28T20:35:17.928Z,17.10
2022-07-28T20:38:06.101Z,17.00
2022-07-28T20:40:55.101Z,17.20
2022-07-28T20:43:41.025Z,17.10
2022-07-28T20:46:27.289Z,16.90
2022-07-28T20:49:18.419Z,17.00
2022-07-28T20:52:04.716Z,16.90
2022-07-28T20:54:54.191Z,16.70
2022-07-28T20:57:42.581Z,16.70
2022-07-28T21:00:39.523Z,16.80
2022-07-28T21:03:25.323Z,16.60
2022-07-28T21:06:10.782Z,16.70
2022-07-28T21:09:00.533Z,16.60
2022-07-28T21:11:48.607Z,16.40
2022-07-28T21:14:34.363Z,16.40
2022-07-28T21:17:27.564Z,16.50
2022-07-28T21:20:13.037Z,16.50
2022-07-28T21:23:10.497Z,16.40
2022-07-28T21:25:56.130Z,16.40
2022-07-28T21:29:02.791Z,16.40
2022-07-28T21:32:02.258Z,16.40
2022-07-28T21:34:50.977Z,16.20
2022-07-28T21:37:39.091Z,16.30
2022-07-28T21:40:27.632Z,16.40
2022-07-28T21:43:12.931Z,16.30
2022-07-28T21:45:58.467Z,16.30
2022-07-28T21:48:46.823Z,16.30
2022-07-28T21:51:34.187Z,16.20
2022-07-28T21:54:20.328Z,16.30
2022-07-28T21:57:16.350Z,16.20
2022-07-28T22:00:15.646Z,16.20
2022-07-28T22:03:01.478Z,16.10
2022-07-28T22:05:47.441Z,16.30
2022-07-28T22:08:33.929Z,16.20
2022-07-28T22:11:23.817Z,16.20
2022-07-28T22:14:09.481Z,16.30
2022-07-28T22:17:03.773Z,16.30
2022-07-28T22:19:49.529Z,16.30
2022-07-28T22:22:35.199Z,16.20
2022-07-28T22:25:20.861Z,16.30
2022-07-28T22:28:07.301Z,16.20
2022-07-28T22:30:54.908Z,16.20
2022-07-28T22:33:42.089Z,16.30
2022-07-28T22:36:27.753Z,16.20
2022-07-28T22:39:13.110Z,16.40
2022-07-28T22:41:58.892Z,16.20
2022-07-28T22:44:44.221Z,16.40
2022-07-28T22:47:29.799Z,16.40
2022-07-28T22:50:15.748Z,16.40
2022-07-28T22:53:01.325Z,16.30
2022-07-28T22:58:50.644Z,16.40
2022-07-28T23:01:37.003Z,16.30
2022-07-28T23:04:23.101Z,16.30
2022-07-28T23:07:14.994Z,16.30
2022-07-28T23:10:00.843Z,16.30
2022-07-28T23:12:46.358Z,16.30
2022-07-28T23:15:40.032Z,16.30
2022-07-28T23:18:27.013Z,16.20
2022-07-28T23:21:12.932Z,16.30
2022-07-28T23:24:01.047Z,16.40
2022-07-28T23:26:46.486Z,16.50
2022-07-28T23:29:32.586Z,16.30
2022-07-28T23:32:18.822Z,16.40
2022-07-28T23:35:07.135Z,16.30
2022-07-28T23:37:53.319Z,16.40
2022-07-28T23:40:39.073Z,16.40
2022-07-28T23:43:24.285Z,16.30
2022-07-28T23:46:09.974Z,16.40
2022-07-28T23:48:55.576Z,16.50
2022-07-28T23:51:48.166Z,16.50
2022-07-28T23:54:34.345Z,16.50
2022-07-28T23:57:20.227Z,16.60
